Time;durP1;ratioP1;P1;durP2;ratioP2;P2;SDS_P1;SDS_P2;PMS_P1;PMS_P2;Temp;Humidity;BMP_temperature;BMP_pressure;BME280_temperature;BME280_humidity;BME280_pressure;Samples;Min_cycle;Max_cycle;Signal;HPM_P1;HPM_P2
2023/10/17 00:01:18;;;;;;;7.93;7.43;;;11.00;14.70;;;;;;6123209;23;20465;-66
2023/10/17 00:03:45;;;;;;;8.30;7.80;;;10.70;15.40;;;;;;6123226;23;20433;-66
2023/10/17 00:06:16;;;;;;;9.10;7.70;;;10.50;16.00;;;;;;6124075;23;20386;-66
2023/10/17 00:08:43;;;;;;;7.87;7.47;;;10.30;16.50;;;;;;6124989;23;20443;-66
2023/10/17 00:11:15;;;;;;;8.10;7.70;;;10.10;17.70;;;;;;6124853;23;20400;-66
2023/10/17 00:16:29;;;;;;;7.90;7.40;;;10.40;16.70;;;;;;6126250;23;20437;-66
2023/10/17 00:18:54;;;;;;;8.40;7.90;;;10.50;16.40;;;;;;6124912;23;20465;-67
2023/10/17 00:21:23;;;;;;;7.27;6.97;;;10.60;16.40;;;;;;6124868;23;20378;-66
2023/10/17 00:23:52;;;;;;;7.87;7.47;;;10.70;15.80;;;;;;6124413;23;20317;-66
2023/10/17 00:26:18;;;;;;;8.00;7.50;;;10.80;15.50;;;;;;6124720;23;20382;-66
2023/10/17 00:28:53;;;;;;;9.03;8.10;;;10.90;15.50;;;;;;6124682;23;20394;-66
2023/10/17 00:31:21;;;;;;;7.40;7.10;;;10.90;15.50;;;;;;6124957;23;20755;-66
2023/10/17 00:33:58;;;;;;;8.03;7.63;;;10.90;15.50;;;;;;6124523;23;20429;-66
2023/10/17 00:36:26;;;;;;;8.80;8.30;;;10.70;15.90;;;;;;6124903;23;20428;-66
2023/10/17 00:38:54;;;;;;;8.53;8.03;;;10.70;16.00;;;;;;6124541;23;20381;-66
2023/10/17 00:41:47;;;;;;;8.70;8.17;;;10.70;16.20;;;;;;6124523;23;20382;-66
2023/10/17 00:44:14;;;;;;;8.07;7.67;;;10.70;16.20;;;;;;6124584;23;20413;-66
2023/10/17 00:46:41;;;;;;;8.20;7.80;;;10.70;15.60;;;;;;6124736;23;20394;-66
2023/10/17 00:49:10;;;;;;;8.13;7.73;;;10.80;15.50;;;;;;6124543;23;20448;-67
2023/10/17 00:51:39;;;;;;;6.90;6.60;;;10.40;16.00;;;;;;6124202;23;20385;-66
2023/10/17 00:54:06;;;;;;;8.87;8.17;;;10.00;16.50;;;;;;6124299;23;20422;-66
2023/10/17 00:56:32;;;;;;;8.80;8.20;;;9.60;18.60;;;;;;6124066;23;20429;-66
2023/10/17 00:58:58;;;;;;;8.40;7.90;;;9.40;18.80;;;;;;6124267;23;20383;-66
2023/10/17 01:01:27;;;;;;;7.60;7.20;;;9.40;19.10;;;;;;6124489;23;20393;-67
2023/10/17 01:03:54;;;;;;;8.20;7.80;;;9.40;18.90;;;;;;6124218;23;20248;-67
2023/10/17 01:08:55;;;;;;;8.60;8.20;;;9.80;18.30;;;;;;6136135;23;20361;-66
2023/10/17 01:11:27;;;;;;;8.97;8.57;;;10.00;16.70;;;;;;6124232;23;20392;-67
2023/10/17 01:13:54;;;;;;;8.27;7.80;;;10.20;16.80;;;;;;6124254;23;20385;-67
2023/10/17 01:16:20;;;;;;;9.10;8.57;;;10.20;16.50;;;;;;6123901;23;20422;-68
2023/10/17 01:18:47;;;;;;;8.50;8.07;;;10.30;16.50;;;;;;6125820;23;20454;-67
2023/10/17 01:21:22;;;;;;;7.70;7.30;;;10.40;16.10;;;;;;6124234;23;20428;-68
2023/10/17 01:23:50;;;;;;;8.20;7.77;;;10.50;15.90;;;;;;6124082;23;20508;-68
2023/10/17 01:26:28;;;;;;;8.33;7.93;;;10.50;16.00;;;;;;6124016;23;20859;-68
2023/10/17 01:28:54;;;;;;;8.27;7.87;;;10.50;15.80;;;;;;6124140;23;20866;-67
2023/10/17 01:31:23;;;;;;;8.83;8.37;;;10.50;15.60;;;;;;6123918;23;20386;-68
2023/10/17 01:33:54;;;;;;;8.53;8.13;;;10.50;15.70;;;;;;6123832;23;20176;-67
2023/10/17 01:36:21;;;;;;;8.47;8.07;;;10.60;15.60;;;;;;6123809;23;20797;-67
2023/10/17 01:38:49;;;;;;;8.57;8.17;;;10.50;15.70;;;;;;6124045;23;20877;-66
2023/10/17 01:41:21;;;;;;;9.03;8.53;;;10.60;15.90;;;;;;6124429;23;20382;-66
2023/10/17 01:43:50;;;;;;;8.67;8.27;;;10.60;15.90;;;;;;6124063;23;20382;-67
2023/10/17 01:46:28;;;;;;;8.30;7.90;;;10.60;15.90;;;;;;6123796;23;20901;-69
2023/10/17 01:48:55;;;;;;;8.77;8.27;;;10.70;15.70;;;;;;6123904;23;20461;-67
2023/10/17 01:51:23;;;;;;;7.27;6.97;;;10.60;15.50;;;;;;6123986;23;20472;-67
2023/10/17 01:53:50;;;;;;;7.97;7.57;;;10.30;15.90;;;;;;6123885;23;20843;-68
2023/10/17 01:56:16;;;;;;;7.60;7.30;;;10.00;16.60;;;;;;6123700;23;20433;-67
2023/10/17 01:58:50;;;;;;;9.00;8.50;;;9.60;18.00;;;;;;6123827;23;20437;-68
2023/10/17 02:01:26;;;;;;;8.20;7.70;;;9.40;19.10;;;;;;6123866;23;20414;-68
2023/10/17 02:03:53;;;;;;;8.13;7.83;;;9.40;18.80;;;;;;6123842;23;20438;-68
2023/10/17 02:06:22;;;;;;;8.40;8.00;;;9.60;18.70;;;;;;6123649;23;20386;-67
2023/10/17 02:08:48;;;;;;;8.27;7.87;;;9.80;18.30;;;;;;6123806;23;20386;-67
2023/10/17 02:11:23;;;;;;;8.47;7.93;;;9.60;18.10;;;;;;6123804;23;20397;-67
2023/10/17 02:13:57;;;;;;;8.53;8.13;;;9.40;18.40;;;;;;6123809;23;20456;-67
2023/10/17 02:16:32;;;;;;;8.03;7.70;;;9.30;18.80;;;;;;6123251;23;20427;-67
2023/10/17 02:19:08;;;;;;;9.50;8.90;;;9.10;19.50;;;;;;6123786;23;20376;-66
2023/10/17 02:21:40;;;;;;;8.37;7.90;;;9.10;19.20;;;;;;6123592;23;20377;-67
2023/10/17 02:24:09;;;;;;;8.80;8.40;;;9.10;19.70;;;;;;6123408;23;20933;-67
2023/10/17 02:26:54;;;;;;;8.17;7.73;;;9.20;19.30;;;;;;6123422;23;20400;-67
2023/10/17 02:29:23;;;;;;;8.90;8.50;;;9.10;19.30;;;;;;6123063;23;20385;-67
2023/10/17 02:31:52;;;;;;;9.27;8.77;;;9.10;19.70;;;;;;6123616;23;20389;-67
2023/10/17 02:34:22;;;;;;;8.50;8.10;;;9.20;19.60;;;;;;6123465;23;20401;-67
2023/10/17 02:36:52;;;;;;;8.53;8.00;;;9.40;19.30;;;;;;6123247;23;20426;-67
2023/10/17 02:39:20;;;;;;;8.60;8.10;;;9.60;18.90;;;;;;6123532;23;20437;-67
2023/10/17 02:41:46;;;;;;;8.63;8.20;;;9.80;18.30;;;;;;6123603;23;20464;-67
2023/10/17 02:44:18;;;;;;;8.97;8.47;;;9.90;18.10;;;;;;6123351;23;20412;-67
2023/10/17 02:46:44;;;;;;;9.17;8.67;;;9.80;18.00;;;;;;6122954;23;20404;-67
2023/10/17 02:49:13;;;;;;;9.63;9.03;;;9.70;18.30;;;;;;6123287;23;20377;-67
2023/10/17 02:51:42;;;;;;;7.93;7.53;;;9.60;18.60;;;;;;6123230;23;20393;-67
2023/10/17 02:54:12;;;;;;;8.40;8.00;;;9.40;18.80;;;;;;6123148;23;20851;-67
2023/10/17 02:56:38;;;;;;;8.63;8.13;;;9.20;19.30;;;;;;6122953;23;20513;-67
2023/10/17 02:59:09;;;;;;;9.40;8.90;;;9.00;19.80;;;;;;6123230;23;20469;-67
2023/10/17 03:01:36;;;;;;;9.40;8.80;;;8.90;19.80;;;;;;6123174;23;20693;-67
2023/10/17 03:04:10;;;;;;;8.97;8.57;;;8.80;20.10;;;;;;6123030;23;20386;-67
2023/10/17 03:06:40;;;;;;;9.10;8.60;;;8.60;20.90;;;;;;6123658;23;20700;-67
2023/10/17 03:14:39;;;;;;;9.50;9.10;;;8.10;22.20;;;;;;6134721;23;20702;-67
2023/10/17 03:17:09;;;;;;;10.20;9.70;;;7.80;22.60;;;;;;6123239;23;20747;-67
2023/10/17 03:19:36;;;;;;;9.47;9.07;;;7.50;23.70;;;;;;6123174;23;20385;-67
2023/10/17 03:22:16;;;;;;;9.33;8.83;;;7.60;23.50;;;;;;6123300;23;20386;-67
2023/10/17 03:24:59;;;;;;;10.10;9.60;;;7.70;23.60;;;;;;6123277;23;20409;-67
2023/10/17 03:27:35;;;;;;;10.13;9.57;;;7.80;23.20;;;;;;6123486;23;20381;-67
2023/10/17 03:30:10;;;;;;;9.83;9.27;;;7.90;22.70;;;;;;6123772;23;20445;-69
2023/10/17 03:35:21;;;;;;;9.23;8.83;;;8.10;22.60;;;;;;6125116;23;20913;-67
2023/10/17 03:37:47;;;;;;;10.37;9.60;;;8.10;22.70;;;;;;6123092;23;20753;-67
2023/10/17 03:40:18;;;;;;;10.27;9.67;;;8.10;22.70;;;;;;6123582;23;20382;-67
2023/10/17 03:42:53;;;;;;;10.10;9.60;;;8.40;22.90;;;;;;6125267;23;20901;-69
2023/10/17 03:48:04;;;;;;;9.10;8.60;;;8.80;21.00;;;;;;6126769;23;20386;-67
2023/10/17 03:53:14;;;;;;;9.00;8.60;;;9.00;20.80;;;;;;6137172;23;20460;-68
2023/10/17 03:55:44;;;;;;;8.80;8.40;;;9.20;20.40;;;;;;6126040;23;20421;-67
2023/10/17 04:00:49;;;;;;;10.00;9.50;;;9.50;19.50;;;;;;6136877;23;20393;-67
2023/10/17 04:09:15;;;;;;;9.60;9.10;;;9.80;18.70;;;;;;6127319;23;20362;-68
2023/10/17 04:11:43;;;;;;;9.70;9.10;;;9.90;18.60;;;;;;6125480;23;20382;-68
2023/10/17 04:14:10;;;;;;;8.93;8.60;;;10.00;17.50;;;;;;6125356;23;20394;-68
2023/10/17 04:16:39;;;;;;;10.63;10.13;;;9.90;18.90;;;;;;6125210;23;20425;-68
2023/10/17 04:19:16;;;;;;;9.37;8.93;;;10.00;17.70;;;;;;6125417;23;20496;-68
2023/10/17 04:21:46;;;;;;;9.00;8.50;;;10.00;17.40;;;;;;6125452;23;20693;-68
2023/10/17 04:24:13;;;;;;;10.00;9.50;;;10.00;17.10;;;;;;6125150;23;20401;-68
2023/10/17 04:26:44;;;;;;;9.50;8.60;;;10.10;17.40;;;;;;6124911;23;20807;-66
2023/10/17 04:29:17;;;;;;;9.87;9.27;;;9.80;17.80;;;;;;6124957;23;20378;-64
2023/10/17 04:31:45;;;;;;;11.53;10.93;;;9.60;18.60;;;;;;6125068;23;20386;-66
2023/10/17 04:34:26;;;;;;;10.37;9.87;;;9.40;19.10;;;;;;6124967;23;20715;-66
2023/10/17 04:36:54;;;;;;;9.87;9.37;;;9.40;19.40;;;;;;6124806;23;20782;-66
2023/10/17 04:39:29;;;;;;;9.83;9.30;;;9.40;19.20;;;;;;6125015;23;20393;-66
2023/10/17 04:44:33;;;;;;;9.77;9.37;;;9.30;19.70;;;;;;6127065;23;20453;-66
2023/10/17 04:49:31;;;;;;;10.17;9.50;;;9.20;19.70;;;;;;6126601;23;20382;-66
2023/10/17 04:52:06;;;;;;;10.17;9.57;;;9.00;20.20;;;;;;6124527;23;20393;-64
2023/10/17 04:57:04;;;;;;;10.17;9.67;;;9.00;20.70;;;;;;6126554;23;20422;-64
2023/10/17 06:16:51;;;;;;;13.10;12.10;;;10.00;17.30;;;;;;6152951;23;20412;-63
2023/10/17 06:19:21;;;;;;;13.60;12.60;;;9.90;18.30;;;;;;6126782;23;20700;-62
2023/10/17 06:32:17;;;;;;;12.47;11.47;;;9.50;19.50;;;;;;6153573;23;20452;-66
2023/10/17 06:34:45;;;;;;;11.90;11.17;;;9.60;19.30;;;;;;6126811;23;20921;-65
2023/10/17 06:37:11;;;;;;;11.33;10.73;;;9.50;19.30;;;;;;6124840;23;20393;-65
2023/10/17 06:39:47;;;;;;;12.00;11.30;;;9.50;19.60;;;;;;6125270;23;20467;-65
2023/10/17 06:42:18;;;;;;;13.50;12.60;;;9.50;19.80;;;;;;6126273;23;20372;-65
2023/10/17 06:44:53;;;;;;;13.37;12.33;;;9.40;19.70;;;;;;6126197;23;20381;-65
2023/10/17 06:47:31;;;;;;;13.00;12.23;;;9.30;20.60;;;;;;6126019;23;20888;-65
2023/10/17 06:55:42;;;;;;;14.40;13.30;;;9.90;19.80;;;;;;6163762;23;20409;-65
2023/10/17 06:58:11;;;;;;;13.63;12.73;;;9.60;20.00;;;;;;6127175;23;20384;-65
2023/10/17 07:00:49;;;;;;;13.87;12.57;;;9.50;19.90;;;;;;6127779;23;20392;-66
2023/10/17 07:03:16;;;;;;;14.20;13.30;;;9.40;20.70;;;;;;6127704;23;20387;-64
2023/10/17 07:05:49;;;;;;;12.77;11.90;;;9.20;21.00;;;;;;6127524;23;20426;-63
2023/10/17 07:08:19;;;;;;;12.77;11.87;;;9.30;20.90;;;;;;6127917;23;20456;-64
2023/10/17 07:10:59;;;;;;;13.47;12.57;;;9.30;21.00;;;;;;6127336;23;20389;-65
2023/10/17 07:13:50;;;;;;;12.57;11.77;;;9.20;21.40;;;;;;6127838;23;20385;-64
2023/10/17 07:16:16;;;;;;;13.43;12.37;;;9.30;21.30;;;;;;6105237;23;20818;-65
2023/10/17 07:18:51;;;;;;;12.10;11.30;;;9.30;21.20;;;;;;6129851;23;20388;-65
2023/10/17 07:21:22;;;;;;;13.97;12.70;;;9.30;21.40;;;;;;6129822;23;20489;-64
2023/10/17 07:23:48;;;;;;;14.17;12.97;;;9.20;21.50;;;;;;6124935;23;20425;-64
2023/10/17 07:26:18;;;;;;;13.00;12.10;;;9.20;21.20;;;;;;6124453;23;20783;-65
2023/10/17 07:28:45;;;;;;;14.40;13.20;;;9.10;22.20;;;;;;6125053;23;20158;-64
2023/10/17 07:31:11;;;;;;;14.23;13.13;;;9.10;22.40;;;;;;6126590;23;20439;-64
2023/10/17 07:36:31;;;;;;;13.40;12.40;;;9.40;21.50;;;;;;6125983;23;20413;-63
2023/10/17 07:38:57;;;;;;;15.07;13.77;;;9.20;22.70;;;;;;6124660;23;20390;-63
2023/10/17 07:41:38;;;;;;;13.47;12.53;;;9.20;22.40;;;;;;6124073;23;20405;-62
2023/10/17 07:44:19;;;;;;;14.53;13.53;;;9.00;22.30;;;;;;6124437;23;20150;-63
2023/10/17 07:46:48;;;;;;;13.47;12.57;;;9.10;22.40;;;;;;6123975;23;20456;-63
2023/10/17 07:49:17;;;;;;;12.73;11.93;;;9.10;22.90;;;;;;6124446;23;20417;-64
2023/10/17 07:51:43;;;;;;;12.80;11.90;;;9.20;21.70;;;;;;6124156;23;20400;-64
2023/10/17 07:54:09;;;;;;;12.70;11.93;;;9.30;20.90;;;;;;6124522;23;20711;-64
2023/10/17 07:56:34;;;;;;;12.03;11.33;;;9.50;21.10;;;;;;6124177;23;20189;-64
2023/10/17 07:59:08;;;;;;;12.37;11.67;;;9.60;20.40;;;;;;6123923;23;20389;-64
2023/10/17 08:01:43;;;;;;;13.47;12.50;;;9.60;20.30;;;;;;6124592;23;20161;-64
2023/10/17 08:06:42;;;;;;;12.57;11.67;;;9.90;19.90;;;;;;6135817;23;20366;-64
2023/10/17 08:09:18;;;;;;;12.60;11.80;;;9.80;19.80;;;;;;6124055;23;20390;-64
2023/10/17 08:11:46;;;;;;;13.17;12.17;;;9.90;20.40;;;;;;6124904;23;20396;-64
2023/10/17 08:14:16;;;;;;;14.53;13.43;;;9.80;20.20;;;;;;6124342;23;20424;-64
2023/10/17 08:16:43;;;;;;;14.57;13.47;;;9.80;20.60;;;;;;6123884;23;20449;-64
2023/10/17 08:24:33;;;;;;;13.87;12.97;;;9.90;20.40;;;;;;6150020;23;20400;-64
2023/10/17 08:27:13;;;;;;;15.10;14.00;;;9.90;20.20;;;;;;6128429;23;20408;-59
2023/10/17 08:29:42;;;;;;;14.63;13.67;;;9.90;21.20;;;;;;6128971;23;20388;-67
2023/10/17 08:34:47;;;;;;;12.70;11.90;;;9.70;20.60;;;;;;6165233;23;20365;-67
2023/10/17 08:37:26;;;;;;;13.67;12.70;;;9.80;20.70;;;;;;6128326;23;20888;-66
2023/10/17 08:39:51;;;;;;;14.43;13.53;;;9.90;20.60;;;;;;6129244;23;20381;-62
2023/10/17 08:44:59;;;;;;;14.40;13.50;;;10.00;19.30;;;;;;6165308;23;20138;-67
2023/10/17 08:47:25;;;;;;;16.23;14.90;;;10.00;19.40;;;;;;6127863;23;20389;-67
2023/10/17 08:49:54;;;;;;;14.67;13.67;;;10.00;19.30;;;;;;6128227;23;20383;-68
2023/10/17 08:52:23;;;;;;;14.80;13.90;;;10.10;19.20;;;;;;6128122;23;20487;-67
2023/10/17 08:54:49;;;;;;;16.37;15.17;;;10.20;19.30;;;;;;6128640;23;20381;-68
2023/10/17 08:57:14;;;;;;;15.77;14.67;;;10.40;19.20;;;;;;6128185;23;20400;-69
2023/10/17 09:04:47;;;;;;;16.67;15.43;;;10.40;18.40;;;;;;6154414;23;20365;-69
2023/10/17 09:07:31;;;;;;;15.63;14.33;;;10.60;18.10;;;;;;6128103;23;20846;-63
2023/10/17 09:10:02;;;;;;;16.33;15.13;;;10.50;18.00;;;;;;6127403;23;20858;-62
2023/10/17 09:12:28;;;;;;;15.63;14.43;;;10.60;18.60;;;;;;6127240;23;20407;-69
2023/10/17 09:14:56;;;;;;;15.90;14.80;;;10.60;18.00;;;;;;6127495;23;20464;-70
2023/10/17 09:19:52;;;;;;;16.13;15.03;;;10.70;17.70;;;;;;6153778;23;20373;-70
2023/10/17 09:22:24;;;;;;;16.43;15.17;;;10.70;18.10;;;;;;6127814;23;20392;-70
2023/10/17 09:24:50;;;;;;;15.50;14.33;;;10.70;18.00;;;;;;6122599;23;20718;-63
2023/10/17 09:27:18;;;;;;;15.20;14.30;;;10.80;18.40;;;;;;6122466;23;20722;-62
2023/10/17 09:29:45;;;;;;;15.80;14.60;;;10.80;18.20;;;;;;6122263;23;20390;-62
2023/10/17 09:32:11;;;;;;;16.97;15.87;;;10.80;18.00;;;;;;6123663;23;20381;-62
2023/10/17 09:34:40;;;;;;;15.67;14.57;;;10.80;18.10;;;;;;6122062;23;20529;-62
2023/10/17 09:37:12;;;;;;;15.97;14.97;;;10.90;18.00;;;;;;6121567;23;20194;-63
2023/10/17 09:39:46;;;;;;;15.80;14.70;;;10.90;17.80;;;;;;6122042;23;20457;-63
2023/10/17 09:42:12;;;;;;;16.40;15.17;;;10.80;18.50;;;;;;6122463;23;20377;-62
2023/10/17 09:44:38;;;;;;;16.67;15.67;;;10.80;18.40;;;;;;6122007;23;20385;-62
2023/10/17 09:47:06;;;;;;;17.23;16.07;;;10.90;18.60;;;;;;6121671;23;20732;-62
2023/10/17 09:49:48;;;;;;;15.23;14.17;;;11.00;18.40;;;;;;6122413;23;20165;-62
2023/10/17 09:52:17;;;;;;;17.77;16.17;;;11.10;18.30;;;;;;6122005;23;20390;-70
2023/10/17 09:54:46;;;;;;;17.40;16.20;;;11.10;18.50;;;;;;6122056;23;20694;-69
2023/10/17 09:57:16;;;;;;;16.27;15.27;;;11.20;18.00;;;;;;6121082;23;20949;-69
2023/10/17 09:59:57;;;;;;;16.90;15.70;;;11.10;17.90;;;;;;6122301;23;20401;-70
2023/10/17 10:02:23;;;;;;;16.67;15.37;;;10.90;18.30;;;;;;6122244;23;20378;-69
2023/10/17 10:04:49;;;;;;;17.37;16.17;;;10.90;18.60;;;;;;6122453;23;20390;-70
2023/10/17 10:07:20;;;;;;;17.87;16.60;;;10.90;18.80;;;;;;6122027;23;20473;-69
2023/10/17 10:09:46;;;;;;;16.73;15.53;;;10.90;18.60;;;;;;6121964;23;20169;-70
2023/10/17 10:12:12;;;;;;;16.60;15.43;;;11.00;18.60;;;;;;6122056;23;20390;-69
2023/10/17 10:14:44;;;;;;;17.83;16.53;;;11.10;18.60;;;;;;6121429;23;20607;-70
2023/10/17 10:17:11;;;;;;;17.00;15.60;;;11.30;18.60;;;;;;6121478;23;20188;-71
2023/10/17 10:19:50;;;;;;;17.63;16.40;;;11.40;18.40;;;;;;6121885;23;20386;-70
2023/10/17 10:22:17;;;;;;;18.20;16.80;;;11.30;18.30;;;;;;6122848;23;20378;-68
2023/10/17 10:24:45;;;;;;;19.23;17.40;;;11.30;18.60;;;;;;6121641;23;20408;-69
2023/10/17 10:27:19;;;;;;;17.27;16.07;;;11.40;18.70;;;;;;6121610;23;20469;-68
2023/10/17 10:29:54;;;;;;;17.97;16.57;;;11.50;18.30;;;;;;6121995;23;20369;-68
2023/10/17 10:32:40;;;;;;;15.37;14.37;;;11.70;18.00;;;;;;6121462;23;20436;-68
2023/10/17 10:35:06;;;;;;;17.53;16.33;;;11.90;17.40;;;;;;6121688;23;20393;-69
2023/10/17 10:37:50;;;;;;;17.90;16.20;;;11.90;16.90;;;;;;6121996;23;20386;-68
2023/10/17 10:40:26;;;;;;;18.13;16.73;;;11.80;17.00;;;;;;6121960;23;20463;-69
2023/10/17 10:42:53;;;;;;;17.40;16.00;;;11.70;17.00;;;;;;6122185;23;20385;-69
2023/10/17 10:46:08;;;;;;;16.80;15.60;;;11.70;17.50;;;;;;6122326;23;20400;-70
2023/10/17 10:48:27;;;;;;;17.20;15.63;;;11.80;17.50;;;;;;6123028;23;20393;-68
2023/10/17 10:50:55;;;;;;;17.87;16.53;;;11.80;17.10;;;;;;6121947;23;20862;-69
2023/10/17 10:53:22;;;;;;;17.60;16.17;;;11.70;17.50;;;;;;6121497;23;20389;-72
2023/10/17 10:55:52;;;;;;;18.73;17.23;;;11.70;17.80;;;;;;6121994;23;20739;-69
2023/10/17 10:58:18;;;;;;;18.67;17.37;;;11.70;18.00;;;;;;6121179;23;20389;-68
2023/10/17 11:00:44;;;;;;;18.97;17.20;;;11.70;18.00;;;;;;6122086;23;20417;-69
2023/10/17 11:03:10;;;;;;;17.27;16.07;;;11.60;18.10;;;;;;6121213;23;20382;-69
2023/10/17 11:06:03;;;;;;;18.73;17.43;;;11.50;18.20;;;;;;6121845;23;20836;-69
2023/10/17 11:08:39;;;;;;;16.40;15.23;;;11.50;19.00;;;;;;6122022;23;20497;-70
2023/10/17 11:11:05;;;;;;;18.20;16.80;;;11.50;18.90;;;;;;6122238;23;20400;-62
2023/10/17 11:13:43;;;;;;;18.67;17.27;;;11.60;19.00;;;;;;6122291;23;20693;-62
2023/10/17 11:16:08;;;;;;;16.53;15.13;;;11.50;19.30;;;;;;6122095;23;20425;-62
2023/10/17 11:18:35;;;;;;;18.73;17.33;;;11.60;18.90;;;;;;6121850;23;20445;-62
2023/10/17 11:21:02;;;;;;;18.90;17.50;;;11.70;19.40;;;;;;6122530;23;20149;-62
2023/10/17 11:23:29;;;;;;;18.37;17.10;;;11.60;19.20;;;;;;6122671;23;20406;-62
2023/10/17 11:25:59;;;;;;;17.10;15.97;;;11.70;19.30;;;;;;6122689;23;20422;-62
2023/10/17 11:28:27;;;;;;;17.47;16.20;;;11.60;19.50;;;;;;6123443;23;20839;-62
2023/10/17 11:30:53;;;;;;;17.90;16.57;;;11.50;19.70;;;;;;6122228;23;20390;-63
2023/10/17 11:33:28;;;;;;;19.57;18.27;;;11.60;19.90;;;;;;6121488;23;20382;-63
2023/10/17 11:35:54;;;;;;;16.80;15.60;;;11.70;20.00;;;;;;6121405;23;20452;-62
2023/10/17 11:38:34;;;;;;;17.73;16.43;;;11.80;20.10;;;;;;6121543;23;20385;-61
2023/10/17 11:41:04;;;;;;;16.90;15.80;;;11.90;19.70;;;;;;6122608;23;20839;-61
2023/10/17 11:43:42;;;;;;;17.53;16.13;;;12.00;19.30;;;;;;6121706;23;20380;-61
2023/10/17 11:46:12;;;;;;;16.70;15.57;;;12.00;19.70;;;;;;6120821;23;20382;-62
2023/10/17 11:48:44;;;;;;;18.20;16.90;;;12.00;20.00;;;;;;6121600;23;20793;-61
2023/10/17 11:51:15;;;;;;;16.90;15.77;;;12.20;19.50;;;;;;6122389;23;20789;-68
2023/10/17 11:54:00;;;;;;;17.17;15.77;;;12.20;19.10;;;;;;6122087;23;20701;-68
2023/10/17 11:56:26;;;;;;;18.70;17.50;;;12.30;19.10;;;;;;6122114;23;20468;-68
2023/10/17 11:58:52;;;;;;;17.57;16.37;;;12.20;19.10;;;;;;6122502;23;20385;-68
2023/10/17 12:01:18;;;;;;;18.40;17.00;;;12.10;19.30;;;;;;6124178;23;20424;-68
2023/10/17 12:03:44;;;;;;;18.33;17.03;;;12.10;19.40;;;;;;6123920;23;20465;-69
2023/10/17 12:06:15;;;;;;;18.60;17.10;;;12.10;19.40;;;;;;6125216;23;20158;-68
2023/10/17 12:08:43;;;;;;;17.90;16.63;;;12.30;19.50;;;;;;6123284;23;20158;-68
2023/10/17 12:11:09;;;;;;;17.10;16.00;;;12.40;19.30;;;;;;6124074;23;20374;-69
2023/10/17 12:13:35;;;;;;;16.17;15.00;;;12.40;19.30;;;;;;6123771;23;20858;-68
2023/10/17 12:16:08;;;;;;;17.20;16.00;;;12.60;19.30;;;;;;6123526;23;20469;-68
2023/10/17 12:18:35;;;;;;;17.80;16.40;;;12.70;19.10;;;;;;6123773;23;20150;-69
2023/10/17 12:21:02;;;;;;;18.80;17.50;;;12.70;18.60;;;;;;6123077;23;20385;-68
2023/10/17 12:23:31;;;;;;;17.63;16.30;;;12.70;18.80;;;;;;6122336;23;20464;-68
2023/10/17 12:26:19;;;;;;;16.27;15.17;;;12.70;18.70;;;;;;6122218;23;20417;-68
2023/10/17 12:28:44;;;;;;;19.10;17.73;;;12.70;18.60;;;;;;6123211;23;20692;-68
2023/10/17 12:31:11;;;;;;;18.00;16.80;;;12.60;18.70;;;;;;6122222;23;20377;-68
2023/10/17 12:33:36;;;;;;;18.00;16.80;;;12.60;19.10;;;;;;6122973;23;20158;-68
2023/10/17 12:36:04;;;;;;;17.03;15.93;;;12.60;18.90;;;;;;6123526;23;20413;-69
2023/10/17 12:38:33;;;;;;;18.90;17.23;;;12.70;19.00;;;;;;6123249;23;20572;-68
2023/10/17 12:41:03;;;;;;;18.70;17.13;;;12.60;19.10;;;;;;6121628;23;20374;-68
2023/10/17 12:43:29;;;;;;;18.00;16.80;;;12.60;19.40;;;;;;6122110;23;20731;-61
2023/10/17 12:45:55;;;;;;;17.70;16.53;;;12.50;19.40;;;;;;6123216;23;20378;-61
2023/10/17 12:48:21;;;;;;;19.03;17.80;;;12.60;19.40;;;;;;6122211;23;20658;-61
2023/10/17 12:50:47;;;;;;;19.37;18.07;;;12.60;19.20;;;;;;6122498;23;20382;-61
2023/10/17 12:53:13;;;;;;;18.30;17.00;;;12.70;19.10;;;;;;6122962;23;20162;-61
2023/10/17 12:55:40;;;;;;;23.03;20.97;;;12.70;19.50;;;;;;6122436;23;20705;-61
2023/10/17 12:58:07;;;;;;;18.60;17.30;;;12.80;19.20;;;;;;6120820;23;20378;-68
2023/10/17 13:00:34;;;;;;;18.33;17.00;;;12.80;19.00;;;;;;6122731;23;20489;-67
2023/10/17 13:03:00;;;;;;;17.23;16.13;;;12.90;18.70;;;;;;6123173;23;20378;-67
2023/10/17 13:05:26;;;;;;;18.33;16.93;;;12.90;19.00;;;;;;6098759;23;20390;-67
2023/10/17 13:07:52;;;;;;;18.17;16.87;;;13.00;18.70;;;;;;6122522;23;20460;-68
2023/10/17 13:10:19;;;;;;;19.13;17.63;;;13.10;18.70;;;;;;6122386;23;20417;-67
2023/10/17 13:12:46;;;;;;;18.63;17.17;;;13.10;19.10;;;;;;6121080;23;20704;-67
2023/10/17 13:15:14;;;;;;;19.47;17.97;;;13.20;18.60;;;;;;6121522;23;20397;-67
2023/10/17 13:17:41;;;;;;;17.57;16.40;;;13.30;18.40;;;;;;6122942;23;20382;-67
2023/10/17 13:20:07;;;;;;;18.73;17.40;;;13.30;18.40;;;;;;6123976;23;20374;-68
2023/10/17 13:22:46;;;;;;;18.30;17.00;;;13.40;18.40;;;;;;6123568;23;20754;-69
2023/10/17 13:25:13;;;;;;;19.50;18.10;;;13.40;18.30;;;;;;6153986;23;20393;-68
2023/10/17 13:27:39;;;;;;;16.50;15.30;;;13.50;18.30;;;;;;6127027;23;20387;-68
2023/10/17 13:30:07;;;;;;;19.07;17.67;;;13.60;18.10;;;;;;6127337;23;20396;-68
2023/10/17 13:32:33;;;;;;;18.33;17.03;;;13.50;18.10;;;;;;6127514;23;20524;-68
2023/10/17 13:35:00;;;;;;;18.50;16.93;;;13.40;18.50;;;;;;6127321;23;20443;-68
2023/10/17 13:37:27;;;;;;;18.33;17.00;;;13.40;18.30;;;;;;6153526;23;20448;-67
2023/10/17 13:39:56;;;;;;;17.73;16.63;;;13.40;19.10;;;;;;6128341;23;20385;-67
2023/10/17 13:42:22;;;;;;;19.20;17.53;;;13.50;18.90;;;;;;6128973;23;20387;-68
2023/10/17 13:44:49;;;;;;;17.90;16.70;;;13.50;18.40;;;;;;6128124;23;20392;-68
2023/10/17 13:47:16;;;;;;;17.17;15.93;;;13.60;18.60;;;;;;6127834;23;20384;-67
2023/10/17 13:49:42;;;;;;;17.43;16.33;;;13.60;18.60;;;;;;6128859;23;20389;-68
2023/10/17 13:52:09;;;;;;;16.90;15.80;;;13.70;18.10;;;;;;6128328;23;20412;-67
2023/10/17 13:54:35;;;;;;;16.90;15.80;;;13.70;18.00;;;;;;6128055;23;20411;-67
2023/10/17 13:57:01;;;;;;;19.80;18.40;;;13.80;17.80;;;;;;6154414;23;20421;-67
2023/10/17 13:59:38;;;;;;;18.67;17.37;;;13.70;17.60;;;;;;6128312;23;20390;-68
2023/10/17 14:02:08;;;;;;;18.03;16.83;;;13.60;17.90;;;;;;6127817;23;20385;-67
2023/10/17 14:04:37;;;;;;;18.07;16.77;;;13.60;18.10;;;;;;6127892;23;20472;-67
2023/10/17 14:07:06;;;;;;;17.80;16.47;;;13.50;18.50;;;;;;6128697;23;20385;-68
2023/10/17 14:09:32;;;;;;;18.60;17.40;;;13.50;18.60;;;;;;6153646;23;20377;-67
2023/10/17 14:11:58;;;;;;;17.23;16.10;;;13.60;18.90;;;;;;6128126;23;20640;-67
2023/10/17 14:14:29;;;;;;;16.53;15.53;;;13.70;18.60;;;;;;6128219;23;20472;-67
2023/10/17 14:16:56;;;;;;;17.87;16.37;;;13.70;18.30;;;;;;6128057;23;20425;-67
2023/10/17 14:19:40;;;;;;;17.83;16.57;;;13.80;18.60;;;;;;6127629;23;20725;-67
2023/10/17 14:27:29;;;;;;;16.63;15.33;;;13.80;18.50;;;;;;6154659;23;20834;-68
2023/10/17 14:29:59;;;;;;;17.20;15.73;;;13.80;18.70;;;;;;6128005;23;20180;-67
2023/10/17 14:32:26;;;;;;;17.53;16.27;;;13.80;18.40;;;;;;6127494;23;20412;-67
2023/10/17 14:34:52;;;;;;;17.43;16.13;;;13.90;18.30;;;;;;6127672;23;20453;-67
2023/10/17 14:37:18;;;;;;;17.40;16.30;;;13.90;18.50;;;;;;6127196;23;20949;-67
2023/10/17 14:39:44;;;;;;;17.23;16.13;;;13.90;18.20;;;;;;6127390;23;20465;-62
2023/10/17 14:42:17;;;;;;;16.80;15.70;;;13.90;18.20;;;;;;6127551;23;20232;-62
2023/10/17 14:44:45;;;;;;;17.80;16.60;;;14.00;18.20;;;;;;6127919;23;20385;-67
2023/10/17 14:47:14;;;;;;;17.03;15.73;;;14.00;17.80;;;;;;6127634;23;20475;-67
2023/10/17 14:49:40;;;;;;;17.60;16.37;;;14.00;18.50;;;;;;6127628;23;20389;-66
2023/10/17 14:52:07;;;;;;;17.63;16.50;;;13.90;18.20;;;;;;6154032;23;20384;-66
2023/10/17 14:54:34;;;;;;;18.17;16.63;;;13.90;18.90;;;;;;6127627;23;20428;-66
2023/10/17 14:57:06;;;;;;;18.20;16.80;;;13.90;18.40;;;;;;6127874;23;20435;-66
2023/10/17 14:59:34;;;;;;;16.27;15.27;;;13.80;18.30;;;;;;6127644;23;20361;-67
2023/10/17 15:02:02;;;;;;;17.53;16.20;;;13.60;18.70;;;;;;6127673;23;20392;-68
2023/10/17 15:04:28;;;;;;;16.13;15.13;;;13.70;19.10;;;;;;6127927;23;20381;-67
2023/10/17 15:06:54;;;;;;;15.97;14.77;;;13.70;18.80;;;;;;6127439;23;20419;-67
2023/10/17 15:09:21;;;;;;;16.30;15.20;;;13.80;19.10;;;;;;6127908;23;20184;-67
2023/10/17 15:11:48;;;;;;;14.90;13.90;;;13.80;18.80;;;;;;6127812;23;20153;-67
2023/10/17 15:14:15;;;;;;;16.47;15.27;;;13.80;18.40;;;;;;6127493;23;20407;-67
2023/10/17 15:16:41;;;;;;;15.53;14.53;;;13.80;18.90;;;;;;6126799;23;20435;-67
2023/10/17 15:19:07;;;;;;;15.70;14.80;;;13.80;18.70;;;;;;6127837;23;20744;-67
2023/10/17 15:21:33;;;;;;;15.53;14.50;;;13.90;18.70;;;;;;6128140;23;20387;-67
2023/10/17 15:24:00;;;;;;;16.10;15.00;;;13.90;18.40;;;;;;6123062;23;20906;-67
2023/10/17 15:26:25;;;;;;;15.20;14.20;;;13.80;18.30;;;;;;6122506;23;20399;-67